sensor_id;sensor_type;location;lat;lon;timestamp;temperature;humidity
12704;DHT22;6416;52.182;7.650;2022-07-29T00:01:15;22.20;39.90
12704;DHT22;6416;52.182;7.650;2022-07-29T00:03:41;22.10;39.90
12704;DHT22;6416;52.182;7.650;2022-07-29T00:06:06;22.10;40.00
12704;DHT22;6416;52.182;7.650;2022-07-29T00:08:32;22.10;40.00
12704;DHT22;6416;52.182;7.650;2022-07-29T00:10:57;22.10;40.10
12704;DHT22;6416;52.182;7.650;2022-07-29T00:13:23;22.10;40.20
12704;DHT22;6416;52.182;7.650;2022-07-29T00:15:48;22.10;40.20
12704;DHT22;6416;52.182;7.650;2022-07-29T00:18:14;22.00;40.10
12704;DHT22;6416;52.182;7.650;2022-07-29T00:20:39;22.00;40.20
12704;DHT22;6416;52.182;7.650;2022-07-29T00:23:05;22.00;40.30
12704;DHT22;6416;52.182;7.650;2022-07-29T00:25:30;22.00;40.30
12704;DHT22;6416;52.182;7.650;2022-07-29T00:27:56;22.00;40.50
12704;DHT22;6416;52.182;7.650;2022-07-29T00:30:22;22.00;40.50
12704;DHT22;6416;52.182;7.650;2022-07-29T00:32:48;22.00;40.40
12704;DHT22;6416;52.182;7.650;2022-07-29T00:35:13;21.90;40.50
12704;DHT22;6416;52.182;7.650;2022-07-29T00:37:39;21.90;40.50
12704;DHT22;6416;52.182;7.650;2022-07-29T00:40:05;21.90;40.50
12704;DHT22;6416;52.182;7.650;2022-07-29T00:42:44;21.90;40.50
12704;DHT22;6416;52.182;7.650;2022-07-29T00:45:10;21.90;41.10
12704;DHT22;6416;52.182;7.650;2022-07-29T00:47:36;21.90;40.60
12704;DHT22;6416;52.182;7.650;2022-07-29T00:50:04;21.90;40.70
12704;DHT22;6416;52.182;7.650;2022-07-29T00:52:29;21.80;40.70
12704;DHT22;6416;52.182;7.650;2022-07-29T00:54:58;21.80;40.70
12704;DHT22;6416;52.182;7.650;2022-07-29T00:57:24;21.80;41.00
12704;DHT22;6416;52.182;7.650;2022-07-29T00:59:49;21.80;40.90
12704;DHT22;6416;52.182;7.650;2022-07-29T01:02:15;21.70;40.90
12704;DHT22;6416;52.182;7.650;2022-07-29T01:04:41;21.70;40.90
12704;DHT22;6416;52.182;7.650;2022-07-29T01:07:07;21.70;40.90
12704;DHT22;6416;52.182;7.650;2022-07-29T01:09:33;21.70;41.00
12704;DHT22;6416;52.182;7.650;2022-07-29T01:11:59;21.70;41.10
12704;DHT22;6416;52.182;7.650;2022-07-29T01:14:25;21.70;41.20
12704;DHT22;6416;52.182;7.650;2022-07-29T01:16:56;21.60;41.10
12704;DHT22;6416;52.182;7.650;2022-07-29T01:25:05;21.60;41.80
12704;DHT22;6416;52.182;7.650;2022-07-29T01:30:22;21.60;41.80
12704;DHT22;6416;52.182;7.650;2022-07-29T01:32:58;21.50;41.40
12704;DHT22;6416;52.182;7.650;2022-07-29T01:35:38;21.50;41.70
12704;DHT22;6416;52.182;7.650;2022-07-29T01:38:22;21.50;41.50
12704;DHT22;6416;52.182;7.650;2022-07-29T01:40:54;21.50;41.90
12704;DHT22;6416;52.182;7.650;2022-07-29T01:43:33;21.40;41.60
12704;DHT22;6416;52.182;7.650;2022-07-29T01:46:04;21.40;41.90
12704;DHT22;6416;52.182;7.650;2022-07-29T01:48:45;21.40;41.70
12704;DHT22;6416;52.182;7.650;2022-07-29T01:51:19;21.40;42.10
12704;DHT22;6416;52.182;7.650;2022-07-29T01:54:18;21.30;42.00
12704;DHT22;6416;52.182;7.650;2022-07-29T01:56:45;21.30;42.30
12704;DHT22;6416;52.182;7.650;2022-07-29T01:59:12;21.30;41.70
12704;DHT22;6416;52.182;7.650;2022-07-29T02:01:39;21.30;41.80
12704;DHT22;6416;52.182;7.650;2022-07-29T02:04:08;21.20;41.90
12704;DHT22;6416;52.182;7.650;2022-07-29T02:06:37;21.20;42.10
12704;DHT22;6416;52.182;7.650;2022-07-29T02:09:04;21.20;42.20
12704;DHT22;6416;52.182;7.650;2022-07-29T02:11:33;21.20;42.10
12704;DHT22;6416;52.182;7.650;2022-07-29T02:14:00;21.10;42.20
12704;DHT22;6416;52.182;7.650;2022-07-29T02:16:28;21.10;42.30
12704;DHT22;6416;52.182;7.650;2022-07-29T02:18:55;21.10;42.40
12704;DHT22;6416;52.182;7.650;2022-07-29T02:21:24;21.10;42.50
12704;DHT22;6416;52.182;7.650;2022-07-29T02:23:56;21.00;42.40
12704;DHT22;6416;52.182;7.650;2022-07-29T02:26:25;21.10;42.80
12704;DHT22;6416;52.182;7.650;2022-07-29T02:28:54;21.00;42.40
12704;DHT22;6416;52.182;7.650;2022-07-29T02:31:30;21.00;42.70
12704;DHT22;6416;52.182;7.650;2022-07-29T02:33:58;21.00;43.00
12704;DHT22;6416;52.182;7.650;2022-07-29T02:36:25;21.00;42.60
12704;DHT22;6416;52.182;7.650;2022-07-29T02:38:52;20.90;42.60
12704;DHT22;6416;52.182;7.650;2022-07-29T02:41:31;20.90;42.60
12704;DHT22;6416;52.182;7.650;2022-07-29T02:44:25;20.90;43.10
12704;DHT22;6416;52.182;7.650;2022-07-29T02:47:14;20.90;43.30
12704;DHT22;6416;52.182;7.650;2022-07-29T02:49:53;20.90;42.70
12704;DHT22;6416;52.182;7.650;2022-07-29T02:52:35;20.80;42.90
12704;DHT22;6416;52.182;7.650;2022-07-29T02:57:49;20.80;43.20
12704;DHT22;6416;52.182;7.650;2022-07-29T03:00:17;20.80;43.00
12704;DHT22;6416;52.182;7.650;2022-07-29T03:02:45;20.70;43.00
12704;DHT22;6416;52.182;7.650;2022-07-29T03:05:20;20.70;43.20
12704;DHT22;6416;52.182;7.650;2022-07-29T03:07:49;20.70;43.50
12704;DHT22;6416;52.182;7.650;2022-07-29T03:10:16;20.70;43.40
12704;DHT22;6416;52.182;7.650;2022-07-29T03:12:43;20.70;43.30
12704;DHT22;6416;52.182;7.650;2022-07-29T03:15:09;20.70;43.40
12704;DHT22;6416;52.182;7.650;2022-07-29T03:17:35;20.60;43.30
12704;DHT22;6416;52.182;7.650;2022-07-29T03:20:01;20.70;43.40
12704;DHT22;6416;52.182;7.650;2022-07-29T03:22:27;20.60;43.50
12704;DHT22;6416;52.182;7.650;2022-07-29T03:24:53;20.60;43.50
12704;DHT22;6416;52.182;7.650;2022-07-29T03:27:18;20.60;43.50
12704;DHT22;6416;52.182;7.650;2022-07-29T03:29:44;20.50;43.50
12704;DHT22;6416;52.182;7.650;2022-07-29T03:32:09;20.50;43.60
12704;DHT22;6416;52.182;7.650;2022-07-29T03:34:36;20.50;43.60
12704;DHT22;6416;52.182;7.650;2022-07-29T03:37:02;20.40;43.70
12704;DHT22;6416;52.182;7.650;2022-07-29T03:39:31;20.40;43.70
12704;DHT22;6416;52.182;7.650;2022-07-29T03:41:59;20.40;43.90
12704;DHT22;6416;52.182;7.650;2022-07-29T03:44:27;20.30;43.90
12704;DHT22;6416;52.182;7.650;2022-07-29T03:46:54;20.30;43.90
12704;DHT22;6416;52.182;7.650;2022-07-29T03:49:21;20.20;43.90
12704;DHT22;6416;52.182;7.650;2022-07-29T03:51:48;20.20;44.10
12704;DHT22;6416;52.182;7.650;2022-07-29T03:54:14;20.20;44.10
12704;DHT22;6416;52.182;7.650;2022-07-29T03:56:42;20.20;44.20
12704;DHT22;6416;52.182;7.650;2022-07-29T03:59:10;20.10;44.20
12704;DHT22;6416;52.182;7.650;2022-07-29T04:01:37;20.10;44.50
12704;DHT22;6416;52.182;7.650;2022-07-29T04:04:04;20.10;44.50
12704;DHT22;6416;52.182;7.650;2022-07-29T04:06:38;20.10;44.50
12704;DHT22;6416;52.182;7.650;2022-07-29T04:09:04;20.10;45.00
12704;DHT22;6416;52.182;7.650;2022-07-29T04:11:29;20.00;44.50
12704;DHT22;6416;52.182;7.650;2022-07-29T04:13:55;20.00;44.60
12704;DHT22;6416;52.182;7.650;2022-07-29T04:16:20;20.00;44.70
12704;DHT22;6416;52.182;7.650;2022-07-29T04:18:46;20.00;44.80
12704;DHT22;6416;52.182;7.650;2022-07-29T04:21:11;19.90;44.70
12704;DHT22;6416;52.182;7.650;2022-07-29T04:23:37;20.00;44.80
12704;DHT22;6416;52.182;7.650;2022-07-29T04:26:03;20.00;45.00
12704;DHT22;6416;52.182;7.650;2022-07-29T04:28:28;19.90;44.90
12704;DHT22;6416;52.182;7.650;2022-07-29T04:30:54;19.90;45.10
12704;DHT22;6416;52.182;7.650;2022-07-29T04:33:19;20.00;45.20
12704;DHT22;6416;52.182;7.650;2022-07-29T04:35:45;20.00;45.30
12704;DHT22;6416;52.182;7.650;2022-07-29T04:38:10;20.00;45.30
12704;DHT22;6416;52.182;7.650;2022-07-29T04:40:36;20.00;45.30
12704;DHT22;6416;52.182;7.650;2022-07-29T04:43:01;20.10;45.40
12704;DHT22;6416;52.182;7.650;2022-07-29T04:45:27;20.10;45.40
12704;DHT22;6416;52.182;7.650;2022-07-29T04:47:53;20.10;45.40
12704;DHT22;6416;52.182;7.650;2022-07-29T04:50:19;20.20;45.50
12704;DHT22;6416;52.182;7.650;2022-07-29T04:52:44;20.20;45.60
12704;DHT22;6416;52.182;7.650;2022-07-29T04:55:10;20.20;45.60
12704;DHT22;6416;52.182;7.650;2022-07-29T04:57:35;20.20;45.60
12704;DHT22;6416;52.182;7.650;2022-07-29T05:00:02;20.30;45.60
12704;DHT22;6416;52.182;7.650;2022-07-29T05:02:28;20.30;45.60
12704;DHT22;6416;52.182;7.650;2022-07-29T05:04:53;20.30;45.70
12704;DHT22;6416;52.182;7.650;2022-07-29T05:07:19;20.40;45.80
12704;DHT22;6416;52.182;7.650;2022-07-29T05:09:44;20.40;45.80
12704;DHT22;6416;52.182;7.650;2022-07-29T05:12:10;20.40;45.90
12704;DHT22;6416;52.182;7.650;2022-07-29T05:14:35;20.50;46.10
12704;DHT22;6416;52.182;7.650;2022-07-29T05:17:01;20.50;46.10
12704;DHT22;6416;52.182;7.650;2022-07-29T05:19:26;20.60;46.10
12704;DHT22;6416;52.182;7.650;2022-07-29T05:21:52;20.60;46.10
12704;DHT22;6416;52.182;7.650;2022-07-29T05:24:17;20.70;46.30
12704;DHT22;6416;52.182;7.650;2022-07-29T05:26:43;20.70;46.20
12704;DHT22;6416;52.182;7.650;2022-07-29T05:29:09;20.80;46.20
12704;DHT22;6416;52.182;7.650;2022-07-29T05:31:34;20.80;46.20
12704;DHT22;6416;52.182;7.650;2022-07-29T05:34:00;20.90;46.30
12704;DHT22;6416;52.182;7.650;2022-07-29T05:36:26;20.90;46.20
12704;DHT22;6416;52.182;7.650;2022-07-29T05:38:51;20.90;46.20
12704;DHT22;6416;52.182;7.650;2022-07-29T05:41:18;21.00;46.20
12704;DHT22;6416;52.182;7.650;2022-07-29T05:43:43;21.10;46.30
12704;DHT22;6416;52.182;7.650;2022-07-29T05:46:09;21.10;46.20
12704;DHT22;6416;52.182;7.650;2022-07-29T05:48:34;21.10;46.20
12704;DHT22;6416;52.182;7.650;2022-07-29T05:51:00;21.20;46.20
12704;DHT22;6416;52.182;7.650;2022-07-29T05:53:25;21.20;46.20
12704;DHT22;6416;52.182;7.650;2022-07-29T05:55:51;21.30;46.30
12704;DHT22;6416;52.182;7.650;2022-07-29T05:58:16;21.30;46.10
12704;DHT22;6416;52.182;7.650;2022-07-29T06:00:42;21.30;46.20
12704;DHT22;6416;52.182;7.650;2022-07-29T06:03:07;21.40;46.10
12704;DHT22;6416;52.182;7.650;2022-07-29T06:05:33;21.40;46.10
12704;DHT22;6416;52.182;7.650;2022-07-29T06:07:58;21.40;46.20
12704;DHT22;6416;52.182;7.650;2022-07-29T06:10:24;21.50;46.40
12704;DHT22;6416;52.182;7.650;2022-07-29T06:12:49;21.60;46.40
12704;DHT22;6416;52.182;7.650;2022-07-29T06:15:15;21.60;46.40
12704;DHT22;6416;52.182;7.650;2022-07-29T06:17:40;21.60;46.30
12704;DHT22;6416;52.182;7.650;2022-07-29T06:20:06;21.70;46.40
12704;DHT22;6416;52.182;7.650;2022-07-29T06:22:32;21.80;46.40
12704;DHT22;6416;52.182;7.650;2022-07-29T06:24:58;21.80;46.30
12704;DHT22;6416;52.182;7.650;2022-07-29T06:27:23;21.90;46.20
12704;DHT22;6416;52.182;7.650;2022-07-29T06:29:48;21.90;46.40
12704;DHT22;6416;52.182;7.650;2022-07-29T06:32:14;22.00;46.40
12704;DHT22;6416;52.182;7.650;2022-07-29T06:34:39;22.10;46.30
12704;DHT22;6416;52.182;7.650;2022-07-29T06:37:06;22.20;46.40
12704;DHT22;6416;52.182;7.650;2022-07-29T06:39:36;22.20;46.40
12704;DHT22;6416;52.182;7.650;2022-07-29T06:42:03;22.20;46.40
12704;DHT22;6416;52.182;7.650;2022-07-29T06:44:29;22.30;46.30
12704;DHT22;6416;52.182;7.650;2022-07-29T06:46:55;22.40;46.30
12704;DHT22;6416;52.182;7.650;2022-07-29T06:49:20;22.40;46.30
12704;DHT22;6416;52.182;7.650;2022-07-29T06:51:46;22.40;46.10
12704;DHT22;6416;52.182;7.650;2022-07-29T06:54:11;22.50;46.10
12704;DHT22;6416;52.182;7.650;2022-07-29T06:59:05;22.40;47.10
12704;DHT22;6416;52.182;7.650;2022-07-29T07:01:30;22.40;46.80
12704;DHT22;6416;52.182;7.650;2022-07-29T07:03:56;22.50;46.70
12704;DHT22;6416;52.182;7.650;2022-07-29T07:06:21;22.60;46.60
12704;DHT22;6416;52.182;7.650;2022-07-29T07:08:47;22.70;46.80
12704;DHT22;6416;52.182;7.650;2022-07-29T07:11:12;22.70;46.80
12704;DHT22;6416;52.182;7.650;2022-07-29T07:13:38;22.80;46.90
12704;DHT22;6416;52.182;7.650;2022-07-29T07:16:04;22.80;46.90
12704;DHT22;6416;52.182;7.650;2022-07-29T07:18:29;22.90;46.70
12704;DHT22;6416;52.182;7.650;2022-07-29T07:20:56;22.90;46.60
12704;DHT22;6416;52.182;7.650;2022-07-29T07:23:21;22.90;46.60
12704;DHT22;6416;52.182;7.650;2022-07-29T07:25:47;22.90;46.40
12704;DHT22;6416;52.182;7.650;2022-07-29T07:28:12;22.90;46.40
12704;DHT22;6416;52.182;7.650;2022-07-29T07:30:39;22.90;46.40
12704;DHT22;6416;52.182;7.650;2022-07-29T07:33:04;22.90;46.40
12704;DHT22;6416;52.182;7.650;2022-07-29T07:35:30;22.90;46.30
12704;DHT22;6416;52.182;7.650;2022-07-29T07:37:56;22.90;46.30
12704;DHT22;6416;52.182;7.650;2022-07-29T07:40:22;23.00;46.40
12704;DHT22;6416;52.182;7.650;2022-07-29T07:42:47;23.00;46.50
12704;DHT22;6416;52.182;7.650;2022-07-29T07:45:13;23.00;46.50
12704;DHT22;6416;52.182;7.650;2022-07-29T07:47:38;23.00;46.50
12704;DHT22;6416;52.182;7.650;2022-07-29T07:50:05;23.10;46.50
12704;DHT22;6416;52.182;7.650;2022-07-29T07:52:31;23.10;46.60
12704;DHT22;6416;52.182;7.650;2022-07-29T07:54:57;23.20;46.50
12704;DHT22;6416;52.182;7.650;2022-07-29T07:57:22;23.20;46.50
12704;DHT22;6416;52.182;7.650;2022-07-29T07:59:48;23.30;46.50
12704;DHT22;6416;52.182;7.650;2022-07-29T08:02:13;23.40;46.70
12704;DHT22;6416;52.182;7.650;2022-07-29T08:04:39;23.50;46.90
12704;DHT22;6416;52.182;7.650;2022-07-29T08:07:04;23.70;46.90
12704;DHT22;6416;52.182;7.650;2022-07-29T08:09:30;23.80;47.10
12704;DHT22;6416;52.182;7.650;2022-07-29T08:11:57;24.00;47.20
12704;DHT22;6416;52.182;7.650;2022-07-29T08:14:22;24.30;47.50
12704;DHT22;6416;52.182;7.650;2022-07-29T08:16:48;24.50;47.40
12704;DHT22;6416;52.182;7.650;2022-07-29T08:19:13;24.70;47.30
12704;DHT22;6416;52.182;7.650;2022-07-29T08:21:39;25.00;47.30
12704;DHT22;6416;52.182;7.650;2022-07-29T08:24:05;25.10;46.70
12704;DHT22;6416;52.182;7.650;2022-07-29T08:26:31;25.30;46.20
12704;DHT22;6416;52.182;7.650;2022-07-29T08:28:56;25.40;45.60
12704;DHT22;6416;52.182;7.650;2022-07-29T08:31:22;25.50;45.30
12704;DHT22;6416;52.182;7.650;2022-07-29T08:33:47;25.50;45.00
12704;DHT22;6416;52.182;7.650;2022-07-29T08:36:13;25.60;45.00
12704;DHT22;6416;52.182;7.650;2022-07-29T08:38:38;25.50;44.80
12704;DHT22;6416;52.182;7.650;2022-07-29T08:41:04;25.50;44.70
12704;DHT22;6416;52.182;7.650;2022-07-29T08:43:29;25.50;44.70
12704;DHT22;6416;52.182;7.650;2022-07-29T08:45:55;25.50;44.60
12704;DHT22;6416;52.182;7.650;2022-07-29T08:48:22;25.60;44.70
12704;DHT22;6416;52.182;7.650;2022-07-29T08:50:52;25.60;44.70
12704;DHT22;6416;52.182;7.650;2022-07-29T08:53:19;25.60;44.70
12704;DHT22;6416;52.182;7.650;2022-07-29T08:55:47;25.60;44.80
12704;DHT22;6416;52.182;7.650;2022-07-29T08:58:13;25.70;44.90
12704;DHT22;6416;52.182;7.650;2022-07-29T09:00:45;25.70;44.90
12704;DHT22;6416;52.182;7.650;2022-07-29T09:03:15;25.80;44.90
12704;DHT22;6416;52.182;7.650;2022-07-29T09:05:42;25.90;44.90
12704;DHT22;6416;52.182;7.650;2022-07-29T09:08:08;26.00;45.10
12704;DHT22;6416;52.182;7.650;2022-07-29T09:10:37;26.20;45.30
12704;DHT22;6416;52.182;7.650;2022-07-29T09:13:02;26.40;45.40
12704;DHT22;6416;52.182;7.650;2022-07-29T09:15:28;26.50;45.20
12704;DHT22;6416;52.182;7.650;2022-07-29T09:17:53;26.70;45.00
12704;DHT22;6416;52.182;7.650;2022-07-29T09:20:21;26.80;44.60
12704;DHT22;6416;52.182;7.650;2022-07-29T09:22:47;26.80;44.30
12704;DHT22;6416;52.182;7.650;2022-07-29T09:25:12;26.90;43.90
12704;DHT22;6416;52.182;7.650;2022-07-29T09:27:38;26.90;43.60
12704;DHT22;6416;52.182;7.650;2022-07-29T09:30:13;26.90;44.10
12704;DHT22;6416;52.182;7.650;2022-07-29T09:32:59;26.80;43.40
12704;DHT22;6416;52.182;7.650;2022-07-29T09:35:26;26.70;43.20
12704;DHT22;6416;52.182;7.650;2022-07-29T09:37:52;26.60;43.10
12704;DHT22;6416;52.182;7.650;2022-07-29T09:42:45;26.40;43.20
12704;DHT22;6416;52.182;7.650;2022-07-29T09:45:11;26.30;43.20
12704;DHT22;6416;52.182;7.650;2022-07-29T09:47:45;26.20;44.20
12704;DHT22;6416;52.182;7.650;2022-07-29T09:50:11;26.10;43.70
12704;DHT22;6416;52.182;7.650;2022-07-29T09:52:48;26.00;43.60
12704;DHT22;6416;52.182;7.650;2022-07-29T09:55:14;25.90;43.60
12704;DHT22;6416;52.182;7.650;2022-07-29T09:57:40;25.80;43.70
12704;DHT22;6416;52.182;7.650;2022-07-29T10:00:14;25.70;44.00
12704;DHT22;6416;52.182;7.650;2022-07-29T10:02:42;25.70;44.70
12704;DHT22;6416;52.182;7.650;2022-07-29T10:05:23;25.60;45.00
12704;DHT22;6416;52.182;7.650;2022-07-29T10:07:57;25.50;45.90
12704;DHT22;6416;52.182;7.650;2022-07-29T10:10:27;25.50;45.90
12704;DHT22;6416;52.182;7.650;2022-07-29T10:13:05;25.40;46.10
12704;DHT22;6416;52.182;7.650;2022-07-29T10:15:33;25.40;46.50
12704;DHT22;6416;52.182;7.650;2022-07-29T10:17:59;25.30;46.30
12704;DHT22;6416;52.182;7.650;2022-07-29T10:20:26;25.30;46.40
12704;DHT22;6416;52.182;7.650;2022-07-29T10:22:53;25.20;46.50
12704;DHT22;6416;52.182;7.650;2022-07-29T10:25:20;25.20;46.70
12704;DHT22;6416;52.182;7.650;2022-07-29T10:27:46;25.10;46.80
12704;DHT22;6416;52.182;7.650;2022-07-29T10:30:14;25.10;46.90
12704;DHT22;6416;52.182;7.650;2022-07-29T10:32:50;25.00;47.10
12704;DHT22;6416;52.182;7.650;2022-07-29T10:35:52;25.00;47.00
12704;DHT22;6416;52.182;7.650;2022-07-29T10:38:55;25.00;48.00
12704;DHT22;6416;52.182;7.650;2022-07-29T10:46:24;24.90;47.90
12704;DHT22;6416;52.182;7.650;2022-07-29T10:49:11;25.00;47.80
12704;DHT22;6416;52.182;7.650;2022-07-29T10:52:03;25.00;48.60
12704;DHT22;6416;52.182;7.650;2022-07-29T10:54:36;25.00;48.40
12704;DHT22;6416;52.182;7.650;2022-07-29T10:59:45;25.10;48.20
12704;DHT22;6416;52.182;7.650;2022-07-29T11:07:24;25.00;47.80
12704;DHT22;6416;52.182;7.650;2022-07-29T11:15:02;25.00;47.70
12704;DHT22;6416;52.182;7.650;2022-07-29T11:17:28;25.00;47.80
12704;DHT22;6416;52.182;7.650;2022-07-29T11:22:59;25.10;48.20
12704;DHT22;6416;52.182;7.650;2022-07-29T11:25:25;25.10;47.80
12704;DHT22;6416;52.182;7.650;2022-07-29T11:27:52;25.10;47.90
12704;DHT22;6416;52.182;7.650;2022-07-29T11:30:19;25.10;47.90
12704;DHT22;6416;52.182;7.650;2022-07-29T11:32:45;25.10;47.70
12704;DHT22;6416;52.182;7.650;2022-07-29T11:37:39;25.10;48.00
12704;DHT22;6416;52.182;7.650;2022-07-29T11:47:39;25.20;48.70
12704;DHT22;6416;52.182;7.650;2022-07-29T11:50:08;25.20;48.80
12704;DHT22;6416;52.182;7.650;2022-07-29T11:52:36;25.30;49.10
12704;DHT22;6416;52.182;7.650;2022-07-29T11:55:04;25.20;48.90
12704;DHT22;6416;52.182;7.650;2022-07-29T11:57:30;25.20;48.80
12704;DHT22;6416;52.182;7.650;2022-07-29T11:59:57;25.20;48.70
12704;DHT22;6416;52.182;7.650;2022-07-29T12:02:23;25.20;48.70
12704;DHT22;6416;52.182;7.650;2022-07-29T12:04:49;25.20;48.70
12704;DHT22;6416;52.182;7.650;2022-07-29T12:07:15;25.10;48.70
12704;DHT22;6416;52.182;7.650;2022-07-29T12:09:49;25.10;48.90
12704;DHT22;6416;52.182;7.650;2022-07-29T12:12:16;25.10;49.50
12704;DHT22;6416;52.182;7.650;2022-07-29T12:14:42;25.00;49.00
12704;DHT22;6416;52.182;7.650;2022-07-29T12:17:34;25.00;49.20
12704;DHT22;6416;52.182;7.650;2022-07-29T12:20:03;25.00;49.70
12704;DHT22;6416;52.182;7.650;2022-07-29T12:25:00;24.90;49.30
12704;DHT22;6416;52.182;7.650;2022-07-29T12:27:26;24.90;49.40
12704;DHT22;6416;52.182;7.650;2022-07-29T12:29:59;24.90;49.50
12704;DHT22;6416;52.182;7.650;2022-07-29T12:32:31;24.90;50.10
12704;DHT22;6416;52.182;7.650;2022-07-29T12:34:57;24.80;50.00
12704;DHT22;6416;52.182;7.650;2022-07-29T12:37:23;24.80;49.60
12704;DHT22;6416;52.182;7.650;2022-07-29T12:39:49;24.80;49.70
12704;DHT22;6416;52.182;7.650;2022-07-29T12:42:15;24.80;50.00
12704;DHT22;6416;52.182;7.650;2022-07-29T12:44:48;24.80;50.20
12704;DHT22;6416;52.182;7.650;2022-07-29T12:47:15;24.80;50.70
12704;DHT22;6416;52.182;7.650;2022-07-29T12:49:41;24.90;51.20
12704;DHT22;6416;52.182;7.650;2022-07-29T12:52:33;24.80;50.60
12704;DHT22;6416;52.182;7.650;2022-07-29T12:54:58;24.90;51.80
12704;DHT22;6416;52.182;7.650;2022-07-29T12:57:25;24.90;51.10
12704;DHT22;6416;52.182;7.650;2022-07-29T13:00:11;24.90;51.10
12704;DHT22;6416;52.182;7.650;2022-07-29T13:02:37;24.90;52.60
12704;DHT22;6416;52.182;7.650;2022-07-29T13:05:05;25.00;51.90
12704;DHT22;6416;52.182;7.650;2022-07-29T13:07:32;25.10;52.20
12704;DHT22;6416;52.182;7.650;2022-07-29T13:10:20;25.10;52.10
12704;DHT22;6416;52.182;7.650;2022-07-29T13:15:28;25.20;52.40
12704;DHT22;6416;52.182;7.650;2022-07-29T13:17:53;25.20;51.80
12704;DHT22;6416;52.182;7.650;2022-07-29T13:20:24;25.20;52.50
12704;DHT22;6416;52.182;7.650;2022-07-29T13:22:49;25.20;52.10
12704;DHT22;6416;52.182;7.650;2022-07-29T13:25:24;25.20;51.90
12704;DHT22;6416;52.182;7.650;2022-07-29T13:27:50;25.20;52.00
12704;DHT22;6416;52.182;7.650;2022-07-29T13:30:15;25.20;51.30
12704;DHT22;6416;52.182;7.650;2022-07-29T13:32:41;25.20;51.30
12704;DHT22;6416;52.182;7.650;2022-07-29T13:35:07;25.10;51.30
12704;DHT22;6416;52.182;7.650;2022-07-29T13:37:34;25.10;51.40
12704;DHT22;6416;52.182;7.650;2022-07-29T13:40:00;25.10;51.30
12704;DHT22;6416;52.182;7.650;2022-07-29T13:42:26;25.10;51.60
12704;DHT22;6416;52.182;7.650;2022-07-29T13:44:52;25.10;51.70
12704;DHT22;6416;52.182;7.650;2022-07-29T13:47:21;25.10;52.00
12704;DHT22;6416;52.182;7.650;2022-07-29T13:49:47;25.10;51.80
12704;DHT22;6416;52.182;7.650;2022-07-29T13:52:13;25.10;52.00
12704;DHT22;6416;52.182;7.650;2022-07-29T13:54:39;25.10;51.90
12704;DHT22;6416;52.182;7.650;2022-07-29T13:57:05;25.20;51.90
12704;DHT22;6416;52.182;7.650;2022-07-29T13:59:30;25.20;51.90
12704;DHT22;6416;52.182;7.650;2022-07-29T14:01:56;25.20;51.90
12704;DHT22;6416;52.182;7.650;2022-07-29T14:04:22;25.20;51.90
12704;DHT22;6416;52.182;7.650;2022-07-29T14:06:47;25.30;52.00
12704;DHT22;6416;52.182;7.650;2022-07-29T14:09:13;25.40;52.10
12704;DHT22;6416;52.182;7.650;2022-07-29T14:11:38;25.40;52.00
12704;DHT22;6416;52.182;7.650;2022-07-29T14:14:04;25.50;52.10
12704;DHT22;6416;52.182;7.650;2022-07-29T14:16:29;25.60;52.20
12704;DHT22;6416;52.182;7.650;2022-07-29T14:18:55;25.70;52.10
12704;DHT22;6416;52.182;7.650;2022-07-29T14:21:20;25.90;52.00
12704;DHT22;6416;52.182;7.650;2022-07-29T14:23:46;26.00;51.90
12704;DHT22;6416;52.182;7.650;2022-07-29T14:26:11;26.20;52.00
12704;DHT22;6416;52.182;7.650;2022-07-29T14:28:37;26.30;51.60
12704;DHT22;6416;52.182;7.650;2022-07-29T14:31:03;26.50;51.40
12704;DHT22;6416;52.182;7.650;2022-07-29T14:33:28;26.70;51.20
12704;DHT22;6416;52.182;7.650;2022-07-29T14:35:54;26.90;50.90
12704;DHT22;6416;52.182;7.650;2022-07-29T14:38:19;27.00;50.60
12704;DHT22;6416;52.182;7.650;2022-07-29T14:40:45;27.20;50.10
12704;DHT22;6416;52.182;7.650;2022-07-29T14:43:10;27.30;49.60
12704;DHT22;6416;52.182;7.650;2022-07-29T14:45:36;27.40;49.40
12704;DHT22;6416;52.182;7.650;2022-07-29T14:48:01;27.50;49.40
12704;DHT22;6416;52.182;7.650;2022-07-29T14:50:27;27.60;49.10
12704;DHT22;6416;52.182;7.650;2022-07-29T14:52:52;27.60;48.70
12704;DHT22;6416;52.182;7.650;2022-07-29T14:55:18;27.70;48.30
12704;DHT22;6416;52.182;7.650;2022-07-29T14:57:43;27.80;47.60
12704;DHT22;6416;52.182;7.650;2022-07-29T15:00:09;27.90;47.50
12704;DHT22;6416;52.182;7.650;2022-07-29T15:02:35;27.90;46.90
12704;DHT22;6416;52.182;7.650;2022-07-29T15:05:01;27.90;46.70
12704;DHT22;6416;52.182;7.650;2022-07-29T15:07:27;27.90;46.50
12704;DHT22;6416;52.182;7.650;2022-07-29T15:09:52;27.90;46.10
12704;DHT22;6416;52.182;7.650;2022-07-29T15:12:18;27.90;46.10
12704;DHT22;6416;52.182;7.650;2022-07-29T15:14:43;27.90;46.10
12704;DHT22;6416;52.182;7.650;2022-07-29T15:17:09;27.90;45.90
12704;DHT22;6416;52.182;7.650;2022-07-29T15:19:34;27.90;45.90
12704;DHT22;6416;52.182;7.650;2022-07-29T15:22:00;27.90;46.30
12704;DHT22;6416;52.182;7.650;2022-07-29T15:24:26;27.90;45.70
12704;DHT22;6416;52.182;7.650;2022-07-29T15:26:51;27.90;46.10
12704;DHT22;6416;52.182;7.650;2022-07-29T15:29:17;27.90;45.50
12704;DHT22;6416;52.182;7.650;2022-07-29T15:31:43;28.00;45.50
12704;DHT22;6416;52.182;7.650;2022-07-29T15:34:09;28.00;45.40
12704;DHT22;6416;52.182;7.650;2022-07-29T15:36:34;28.00;45.30
12704;DHT22;6416;52.182;7.650;2022-07-29T15:39:00;28.00;45.20
12704;DHT22;6416;52.182;7.650;2022-07-29T15:41:25;28.00;45.40
12704;DHT22;6416;52.182;7.650;2022-07-29T15:43:51;28.10;45.30
12704;DHT22;6416;52.182;7.650;2022-07-29T15:46:17;28.10;45.30
12704;DHT22;6416;52.182;7.650;2022-07-29T15:48:44;28.10;45.10
12704;DHT22;6416;52.182;7.650;2022-07-29T15:51:09;28.10;44.90
12704;DHT22;6416;52.182;7.650;2022-07-29T15:53:35;28.20;44.80
12704;DHT22;6416;52.182;7.650;2022-07-29T15:56:01;28.20;44.70
12704;DHT22;6416;52.182;7.650;2022-07-29T15:58:27;28.20;44.80
12704;DHT22;6416;52.182;7.650;2022-07-29T16:00:53;28.20;44.90
12704;DHT22;6416;52.182;7.650;2022-07-29T16:03:18;28.30;44.90
12704;DHT22;6416;52.182;7.650;2022-07-29T16:05:44;28.30;44.80
12704;DHT22;6416;52.182;7.650;2022-07-29T16:08:09;28.40;44.70
12704;DHT22;6416;52.182;7.650;2022-07-29T16:10:35;28.40;44.80
12704;DHT22;6416;52.182;7.650;2022-07-29T16:13:00;28.40;44.80
12704;DHT22;6416;52.182;7.650;2022-07-29T16:15:26;28.50;44.70
12704;DHT22;6416;52.182;7.650;2022-07-29T16:17:51;28.50;44.60
12704;DHT22;6416;52.182;7.650;2022-07-29T16:20:17;28.50;44.70
12704;DHT22;6416;52.182;7.650;2022-07-29T16:22:42;28.50;44.50
12704;DHT22;6416;52.182;7.650;2022-07-29T16:25:08;28.50;44.30
12704;DHT22;6416;52.182;7.650;2022-07-29T16:27:34;28.50;44.10
12704;DHT22;6416;52.182;7.650;2022-07-29T16:29:59;28.50;44.10
12704;DHT22;6416;52.182;7.650;2022-07-29T16:32:25;28.50;43.90
12704;DHT22;6416;52.182;7.650;2022-07-29T16:34:50;28.50;43.90
12704;DHT22;6416;52.182;7.650;2022-07-29T16:37:16;28.40;43.90
12704;DHT22;6416;52.182;7.650;2022-07-29T16:39:42;28.40;44.00